Time;durP1;ratioP1;P1;durP2;ratioP2;P2;SDS_P1;SDS_P2;PMS_P1;PMS_P2;Temp;Humidity;BMP_temperature;BMP_pressure;BME280_temperature;BME280_humidity;BME280_pressure;Samples;Min_cycle;Max_cycle;Signal;HPM_P1;HPM_P2
2022/10/27 00:02:39;;;;;;;1.20;0.90;;;;;;;18.80;64.77;97378.38;10575686;28;20035;-31
2022/10/27 00:07:40;;;;;;;1.83;1.03;;;;;;;18.84;67.38;97375.88;10567040;28;20031;-30
2022/10/27 00:12:40;;;;;;;1.30;0.87;;;;;;;18.91;67.55;97371.72;10571860;28;20049;-30
2022/10/27 00:17:41;;;;;;;1.80;0.90;;;;;;;18.89;66.54;97361.56;10568678;28;20292;-29
2022/10/27 00:22:41;;;;;;;1.23;0.73;;;;;;;18.87;66.35;97364.91;10567184;28;20032;-30
2022/10/27 00:27:42;;;;;;;1.03;0.80;;;;;;;18.86;66.53;97360.69;10569032;28;20290;-31
2022/10/27 00:32:43;;;;;;;1.40;0.70;;;;;;;18.85;66.15;97361.53;10559504;28;20024;-30
2022/10/27 00:37:43;;;;;;;1.40;0.90;;;;;;;18.81;65.85;97354.69;10569495;28;20549;-30
2022/10/27 00:42:43;;;;;;;1.40;0.70;;;;;;;18.81;65.06;97354.69;10568879;28;20036;-30
2022/10/27 00:47:44;;;;;;;1.00;0.80;;;;;;;18.79;65.02;97352.16;10566892;28;20288;-30
2022/10/27 00:52:49;;;;;;;2.60;1.10;;;;;;;18.80;65.38;97363.16;10570949;28;20285;-31
2022/10/27 00:57:55;;;;;;;1.30;0.70;;;;;;;18.80;65.38;97368.22;10565008;28;20065;-30
2022/10/27 01:02:56;;;;;;;2.22;0.90;;;;;;;18.81;65.38;97365.72;10560716;28;20059;-30
2022/10/27 01:08:03;;;;;;;0.85;0.80;;;;;;;18.81;65.59;97364.84;10559621;28;20482;-30
2022/10/27 01:13:04;;;;;;;1.25;0.98;;;;;;;18.79;67.36;97357.25;10563298;28;20024;-31
2022/10/27 01:18:20;;;;;;;2.08;0.95;;;;;;;18.87;67.51;97359.84;10565296;28;20572;-30
2022/10/27 01:23:47;;;;;;;1.52;1.00;;;;;;;18.89;66.28;97365.75;10560458;28;20494;-30
2022/10/27 01:29:09;;;;;;;0.73;0.70;;;;;;;18.88;66.03;97364.06;10559990;28;20425;-31
2022/10/27 01:34:35;;;;;;;1.40;0.70;;;;;;;18.85;66.11;97364.88;10562549;28;20105;-30
2022/10/27 01:39:47;;;;;;;1.10;0.90;;;;;;;18.84;66.37;97364.91;10565596;28;20422;-30
2022/10/27 01:44:52;;;;;;;1.30;0.88;;;;;;;18.81;65.39;97352.16;10557945;28;20497;-30
2022/10/27 01:49:55;;;;;;;1.08;0.85;;;;;;;18.81;65.25;97354.69;10560107;28;20015;-30
2022/10/27 01:54:56;;;;;;;0.60;0.60;;;;;;;18.82;65.13;97366.59;10563667;28;20451;-29
2022/10/27 02:00:03;;;;;;;0.88;0.60;;;;;;;18.81;65.15;97370.78;10558619;28;20031;-30
2022/10/27 02:05:11;;;;;;;1.33;1.00;;;;;;;18.74;65.08;97352.97;10562891;28;20031;-32
2022/10/27 02:10:42;;;;;;;1.23;0.93;;;;;;;18.81;65.29;97359.78;10553071;28;20024;-31
2022/10/27 02:15:48;;;;;;;0.63;0.60;;;;;;;18.79;65.27;97366.53;10565850;28;20038;-31
2022/10/27 02:20:52;;;;;;;1.63;0.80;;;;;;;18.82;67.30;97366.59;10561258;28;20028;-30
2022/10/27 02:26:14;;;;;;;2.20;1.00;;;;;;;18.87;67.27;97364.91;10558199;28;20039;-30
2022/10/27 02:31:17;;;;;;;1.15;0.60;;;;;;;18.83;66.06;97356.41;10561991;28;20042;-30
2022/10/27 02:36:17;;;;;;;1.27;0.90;;;;;;;18.85;66.17;97361.53;10558587;28;20034;-31
2022/10/27 02:41:18;;;;;;;1.23;0.70;;;;;;;18.83;66.14;97360.66;10557733;28;20038;-30
2022/10/27 02:46:18;;;;;;;0.80;0.80;;;;;;;18.82;65.99;97353.91;10554743;28;20329;-31
2022/10/27 02:51:18;;;;;;;1.00;0.60;;;;;;;18.81;66.18;97364.84;10561132;28;20023;-31
2022/10/27 02:56:19;;;;;;;1.23;0.90;;;;;;;18.81;66.49;97355.56;10557637;28;20285;-30
2022/10/27 03:01:19;;;;;;;1.27;0.80;;;;;;;18.76;65.42;97351.28;10560361;28;20025;-30
2022/10/27 03:06:20;;;;;;;1.00;0.60;;;;;;;18.79;65.37;97351.31;10560699;28;20049;-31
2022/10/27 03:11:20;;;;;;;1.13;0.97;;;;;;;18.79;64.89;97356.38;10559774;28;20032;-30
2022/10/27 03:16:20;;;;;;;0.77;0.57;;;;;;;18.79;65.27;97351.31;10565680;28;20071;-31
2022/10/27 03:21:21;;;;;;;1.57;0.80;;;;;;;18.79;64.77;97353.84;10554216;28;20044;-30
2022/10/27 03:26:21;;;;;;;2.40;0.80;;;;;;;18.83;67.01;97358.97;10556017;28;20039;-30
2022/10/27 03:31:22;;;;;;;1.43;0.77;;;;;;;18.85;66.99;97362.34;10569301;28;20358;-30
2022/10/27 03:36:22;;;;;;;3.45;0.70;;;;;;;18.87;65.95;97370.00;10566956;28;20289;-31
2022/10/27 03:41:22;;;;;;;1.43;0.70;;;;;;;18.85;65.70;97377.56;10563395;28;20089;-31
2022/10/27 03:46:23;;;;;;;0.90;0.80;;;;;;;18.84;66.26;97367.44;10567132;28;20118;-30
2022/10/27 03:51:23;;;;;;;1.10;0.90;;;;;;;18.80;66.03;97360.63;10564547;28;20285;-29
2022/10/27 03:56:24;;;;;;;1.97;0.80;;;;;;;18.80;64.96;97364.00;10571603;28;20030;-29
2022/10/27 04:01:24;;;;;;;0.67;0.40;;;;;;;18.79;64.88;97357.25;10565152;28;20032;-29
2022/10/27 04:06:24;;;;;;;1.10;0.80;;;;;;;18.78;64.75;97360.63;10571319;28;20066;-30
2022/10/27 04:11:25;;;;;;;0.83;0.83;;;;;;;18.76;64.73;97369.06;10566558;28;20089;-30
2022/10/27 04:16:25;;;;;;;0.83;0.70;;;;;;;18.78;64.83;97372.44;10563493;28;20035;-30
2022/10/27 04:21:26;;;;;;;1.57;0.70;;;;;;;18.78;65.34;97367.38;10566476;28;20655;-29
2022/10/27 04:26:27;;;;;;;1.25;0.80;;;;;;;18.75;65.13;97362.28;10556742;28;20042;-30
2022/10/27 04:31:27;;;;;;;2.00;1.10;;;;;;;18.79;67.10;97361.47;10553715;27;20458;-30
2022/10/27 04:36:28;;;;;;;3.63;0.93;;;;;;;18.86;67.05;97358.16;10555530;28;20282;-30
2022/10/27 04:41:30;;;;;;;9.07;1.63;;;;;;;18.88;66.99;97362.41;10555307;28;20764;-30
2022/10/27 04:46:30;;;;;;;3.13;0.88;;;;;;;18.84;65.74;97354.75;10559785;28;20032;-30
2022/10/27 04:51:30;;;;;;;2.63;0.97;;;;;;;18.83;65.82;97355.59;10561805;28;20019;-31
2022/10/27 04:56:31;;;;;;;1.83;0.73;;;;;;;18.72;65.70;97362.22;10553390;28;20034;-30
2022/10/27 05:01:31;;;;;;;7.07;1.47;;;;;;;18.77;65.55;97360.59;10557886;28;20032;-30
2022/10/27 05:06:31;;;;;;;15.93;2.57;;;;;;;18.78;65.48;97357.22;10559520;28;20470;-31
2022/10/27 05:11:32;;;;;;;4.27;0.80;;;;;;;18.64;65.09;97362.19;10564265;28;20028;-32
2022/10/27 05:16:32;;;;;;;13.43;1.80;;;;;;;18.76;65.00;97362.28;10556911;28;20478;-30
2022/10/27 05:21:32;;;;;;;6.00;1.47;;;;;;;18.77;64.87;97353.00;10557693;28;20086;-30
2022/10/27 05:26:33;;;;;;;11.23;1.90;;;;;;;18.80;66.33;97353.00;10560850;28;20032;-30
2022/10/27 05:31:33;;;;;;;6.07;1.57;;;;;;;18.89;66.63;97360.69;10565605;28;20297;-31
2022/10/27 05:36:33;;;;;;;6.80;1.30;;;;;;;18.87;65.97;97359.84;10556936;28;20285;-30
2022/10/27 05:41:34;;;;;;;7.60;1.27;;;;;;;18.85;65.42;97358.97;10555464;28;20047;-30
2022/10/27 05:46:34;;;;;;;8.73;2.10;;;;;;;18.84;66.07;97358.13;10559506;28;20101;-32
2022/10/27 05:51:34;;;;;;;7.63;1.63;;;;;;;18.83;66.13;97368.28;10559383;28;20351;-31
2022/10/27 05:56:35;;;;;;;8.47;1.27;;;;;;;18.82;65.86;97362.34;10560120;28;20040;-32
2022/10/27 06:01:36;;;;;;;5.57;1.63;;;;;;;18.81;65.70;97354.69;10560861;28;20027;-32
2022/10/27 06:06:36;;;;;;;7.78;1.70;;;;;;;18.81;65.45;97355.56;10554173;28;20039;-30
2022/10/27 06:11:36;;;;;;;6.53;1.65;;;;;;;18.80;65.48;97351.34;10556432;28;20024;-30
2022/10/27 06:16:37;;;;;;;4.03;1.00;;;;;;;18.79;65.74;97358.91;10555191;28;20037;-30
2022/10/27 06:21:37;;;;;;;3.80;1.30;;;;;;;18.81;65.83;97364.84;10553376;28;20036;-30
2022/10/27 06:26:37;;;;;;;3.63;1.30;;;;;;;18.80;66.06;97365.69;10554643;28;20163;-30
2022/10/27 06:31:40;;;;;;;5.23;1.33;;;;;;;18.80;66.40;97353.00;10567596;28;20024;-30
2022/10/27 06:36:40;;;;;;;5.18;1.27;;;;;;;18.85;66.50;97359.81;10557136;28;20444;-30
2022/10/27 06:41:41;;;;;;;4.60;1.17;;;;;;;18.86;66.58;97358.16;10553603;28;20032;-30
2022/10/27 06:46:41;;;;;;;2.97;1.10;;;;;;;18.87;65.69;97364.91;10566151;28;20023;-30
2022/10/27 06:51:41;;;;;;;3.37;1.20;;;;;;;18.84;65.63;97364.91;10558250;28;20030;-30
2022/10/27 06:56:42;;;;;;;1.87;0.97;;;;;;;18.81;65.93;97378.41;10553653;28;20043;-30
2022/10/27 07:01:42;;;;;;;2.73;1.53;;;;;;;18.80;66.26;97374.16;10559382;28;20813;-30
2022/10/27 07:06:42;;;;;;;1.10;0.80;;;;;;;18.80;66.17;97381.78;10568201;28;20409;-31
2022/10/27 07:11:43;;;;;;;1.70;1.20;;;;;;;18.81;66.06;97392.75;10567498;28;20235;-31
2022/10/27 07:16:43;;;;;;;1.43;1.00;;;;;;;18.78;66.24;97387.66;10562854;28;20042;-30
2022/10/27 07:21:44;;;;;;;2.90;0.80;;;;;;;18.80;65.61;97398.66;10563699;28;20031;-30
2022/10/27 07:26:44;;;;;;;1.57;1.10;;;;;;;18.79;66.34;97407.13;10561566;28;20285;-30
2022/10/27 07:31:46;;;;;;;1.27;0.80;;;;;;;18.79;65.69;97419.81;10570098;28;20482;-30
2022/10/27 07:36:46;;;;;;;2.63;0.90;;;;;;;18.78;65.72;97424.03;10564734;28;20280;-30
2022/10/27 07:41:46;;;;;;;2.60;1.20;;;;;;;18.85;66.50;97424.94;10561716;28;20040;-31
2022/10/27 07:46:47;;;;;;;2.07;1.50;;;;;;;18.86;66.44;97434.25;10564721;28;20286;-30
2022/10/27 07:51:47;;;;;;;1.97;1.00;;;;;;;18.86;66.37;97429.19;10565402;28;20019;-30
2022/10/27 07:56:48;;;;;;;2.93;1.47;;;;;;;18.83;65.26;97429.16;10559462;28;20057;-30
2022/10/27 08:01:48;;;;;;;1.02;0.90;;;;;;;18.80;65.25;97435.06;10565014;28;20682;-31
2022/10/27 08:06:48;;;;;;;2.73;1.20;;;;;;;18.77;65.90;97424.84;10541760;28;20504;-30
2022/10/27 08:11:49;;;;;;;1.40;1.07;;;;;;;18.72;66.04;97420.56;10559352;27;20120;-31
2022/10/27 08:16:49;;;;;;;1.33;1.00;;;;;;;18.78;66.12;97421.50;10558674;28;20028;-30
2022/10/27 08:21:50;;;;;;;5.87;1.20;;;;;;;18.79;65.96;97422.34;10564852;28;20309;-29
2022/10/27 08:26:50;;;;;;;4.23;1.07;;;;;;;18.78;66.12;97421.50;10558737;28;20306;-30
2022/10/27 08:31:51;;;;;;;2.67;1.10;;;;;;;18.78;66.07;97428.25;10571692;28;20032;-30
2022/10/27 08:36:51;;;;;;;1.52;1.00;;;;;;;18.79;65.94;97437.56;10556086;28;20035;-29
2022/10/27 08:42:13;;;;;;;2.30;1.30;;;;;;;18.78;66.09;97438.41;10559132;28;20482;-31
2022/10/27 08:47:19;;;;;;;3.15;0.98;;;;;;;18.81;66.45;97439.28;10562373;28;20317;-30
2022/10/27 08:52:28;;;;;;;3.63;1.07;;;;;;;18.86;66.35;97434.25;10566981;28;20023;-30
2022/10/27 08:57:32;;;;;;;2.30;1.48;;;;;;;18.88;66.38;97432.56;10555372;28;20837;-30
2022/10/27 09:02:41;;;;;;;0.55;0.55;;;;;;;18.82;65.52;97424.94;10557451;28;20509;-31
2022/10/27 09:07:56;;;;;;;1.63;0.85;;;;;;;18.79;65.27;97428.28;10555457;28;20032;-31
2022/10/27 09:13:33;;;;;;;1.98;1.00;;;;;;;18.77;65.54;97429.09;10556863;28;20032;-31
2022/10/27 09:18:40;;;;;;;5.15;2.00;;;;;;;18.79;66.15;97435.03;10522551;28;20050;-31
2022/10/27 09:23:48;;;;;;;1.25;0.90;;;;;;;18.78;66.05;97428.25;10564960;28;20049;-31
2022/10/27 09:28:51;;;;;;;0.90;0.80;;;;;;;18.77;65.05;97424.84;10556064;28;20035;-30
2022/10/27 09:33:57;;;;;;;1.48;0.88;;;;;;;18.75;65.68;97420.63;10563602;28;20028;-30
2022/10/27 09:38:57;;;;;;;;;;;;;;;18.73;65.28;97427.34;10559510;28;20036;-31
2022/10/27 09:43:59;;;;;;;1.00;0.80;;;;;;;18.61;65.69;97406.94;10564312;28;19912;-30
2022/10/27 09:49:09;;;;;;;1.48;0.70;;;;;;;18.77;65.33;97424.03;10560098;28;20115;-31
2022/10/27 09:54:37;;;;;;;1.70;0.90;;;;;;;18.81;66.23;97420.66;10549598;28;20035;-30
2022/10/27 09:59:39;;;;;;;2.22;1.00;;;;;;;18.85;66.21;97423.25;10559557;28;20031;-30
2022/10/27 10:04:46;;;;;;;1.10;0.93;;;;;;;18.84;65.38;97425.78;10558771;28;20071;-30
2022/10/27 10:10:04;;;;;;;1.00;0.80;;;;;;;18.82;65.22;97432.53;10552147;28;20083;-31
2022/10/27 10:15:10;;;;;;;0.93;0.90;;;;;;;18.77;64.86;97440.06;10557434;28;20496;-30
2022/10/27 10:20:46;;;;;;;1.67;0.90;;;;;;;18.78;65.37;97435.88;10559236;28;20115;-30
2022/10/27 10:25:48;;;;;;;2.63;0.82;;;;;;;18.75;65.30;97430.78;10548583;28;20429;-29
2022/10/27 10:30:54;;;;;;;1.42;0.90;;;;;;;18.76;65.11;97432.47;10567210;28;20402;-30
2022/10/27 10:35:54;;;;;;;1.75;1.00;;;;;;;18.75;64.72;97415.56;10555935;28;20150;-29
2022/10/27 10:41:10;;;;;;;1.65;1.02;;;;;;;18.75;64.96;97420.63;10556598;28;20498;-30
2022/10/27 10:46:24;;;;;;;8.97;5.60;;;;;;;18.73;64.77;97423.13;10558580;28;20483;-31
2022/10/27 10:51:28;;;;;;;20.02;10.35;;;;;;;18.70;66.18;97407.03;10555590;28;20105;-31
2022/10/27 10:56:36;;;;;;;25.55;14.48;;;;;;;18.76;64.99;97417.25;10559329;28;20030;-30
2022/10/27 11:01:45;;;;;;;25.10;11.15;;;;;;;18.85;66.36;97402.13;10556697;28;20026;-31
2022/10/27 11:07:00;;;;;;;25.98;9.90;;;;;;;18.92;66.13;97386.94;10559718;28;20032;-30
2022/10/27 11:12:03;;;;;;;19.08;8.00;;;;;;;18.88;66.14;97381.84;10552840;28;20485;-29
2022/10/27 11:17:04;;;;;;;18.17;7.78;;;;;;;18.77;65.44;97370.75;10556771;28;20020;-30
2022/10/27 11:22:15;;;;;;;13.70;8.02;;;;;;;18.77;65.02;97366.50;10555559;28;20042;-31
2022/10/27 11:27:23;;;;;;;15.68;6.38;;;;;;;18.75;65.11;97354.66;10552705;28;20032;-30
2022/10/27 11:32:39;;;;;;;18.55;5.60;;;;;;;18.74;64.97;97356.34;10565760;28;20047;-30
2022/10/27 11:37:52;;;;;;;13.23;5.27;;;;;;;18.74;64.77;97353.81;10556921;28;20024;-30
2022/10/27 11:42:59;;;;;;;10.65;3.83;;;;;;;18.73;64.87;97361.38;10554584;28;20043;-30
2022/10/27 11:48:06;;;;;;;11.05;3.95;;;;;;;18.73;65.81;97377.47;10560040;28;20032;-31
2022/10/27 11:53:08;;;;;;;15.27;5.63;;;;;;;18.76;65.38;97371.59;10559306;28;20020;-30
2022/10/27 11:58:39;;;;;;;16.77;5.22;;;;;;;18.74;65.15;97356.34;10562487;28;20028;-31
2022/10/27 12:04:02;;;;;;;11.55;4.03;;;;;;;18.73;65.07;97351.25;10561573;28;20035;-31
2022/10/27 12:10:04;;;;;;;18.10;5.50;;;;;;;18.88;67.80;97351.38;10556710;28;20027;-30
2022/10/27 12:15:16;;;;;;;13.63;5.32;;;;;;;18.95;67.16;97348.06;10461217;28;20509;-30
2022/10/27 12:20:23;;;;;;;9.07;3.92;;;;;;;18.91;66.74;97348.91;10559739;28;20035;-30
2022/10/27 12:25:44;;;;;;;7.28;3.55;;;;;;;18.84;65.19;97349.69;10567458;28;20413;-30
2022/10/27 12:30:46;;;;;;;7.55;2.88;;;;;;;18.75;65.19;97339.44;10566636;28;20028;-31
2022/10/27 12:35:58;;;;;;;6.13;3.00;;;;;;;18.79;65.23;97341.16;10566420;28;20150;-31
2022/10/27 12:41:13;;;;;;;5.75;2.72;;;;;;;18.75;65.11;97339.44;10560421;28;20497;-30
2022/10/27 12:46:54;;;;;;;6.85;3.35;;;;;;;18.76;65.21;97341.16;10562647;28;20035;-30
2022/10/27 12:52:07;;;;;;;8.98;3.40;;;;;;;18.77;65.18;97342.84;10556429;28;20046;-30
2022/10/27 12:57:35;;;;;;;15.27;3.30;;;;;;;18.71;66.24;97335.16;10558302;28;20114;-31
2022/10/27 13:02:42;;;;;;;18.73;7.40;;;;;;;18.75;66.10;97339.44;10558594;28;20036;-31
2022/10/27 13:08:26;;;;;;;19.65;4.45;;;;;;;18.69;67.24;97329.25;10555375;28;20123;-31
2022/10/27 13:13:51;;;;;;;11.43;4.72;;;;;;;18.87;69.75;97316.72;10559748;28;20039;-31
2022/10/27 13:19:10;;;;;;;11.20;3.35;;;;;;;18.97;68.32;97311.72;10553253;28;20528;-31
2022/10/27 13:24:47;;;;;;;10.43;3.88;;;;;;;18.93;68.20;97309.16;10560773;28;20485;-30
2022/10/27 13:29:49;;;;;;;7.67;3.03;;;;;;;18.86;67.29;97317.56;10562572;28;20508;-30
2022/10/27 13:34:58;;;;;;;6.55;2.88;;;;;;;18.77;67.31;97294.66;10559512;28;20040;-30
2022/10/27 13:39:59;;;;;;;8.00;2.75;;;;;;;18.82;67.06;97305.69;10559517;28;20429;-30
2022/10/27 13:45:25;;;;;;;9.37;2.80;;;;;;;18.83;67.12;97310.75;10562281;28;20040;-31
2022/10/27 13:50:40;;;;;;;6.77;2.93;;;;;;;18.81;67.07;97306.50;10560634;28;20111;-32
2022/10/27 13:55:42;;;;;;;6.13;2.75;;;;;;;18.80;67.43;97309.88;10555799;28;20032;-30
2022/10/27 14:01:18;;;;;;;6.38;2.60;;;;;;;18.81;67.15;97317.50;10549185;28;20063;-30
2022/10/27 14:06:24;;;;;;;4.50;2.40;;;;;;;18.80;67.41;97325.09;10558526;28;20494;-30
2022/10/27 14:11:28;;;;;;;6.10;2.50;;;;;;;18.81;67.47;97319.19;10554036;28;20647;-30
2022/10/27 14:16:34;;;;;;;4.90;2.45;;;;;;;18.81;67.79;97329.34;10553421;28;20037;-30
2022/10/27 14:21:40;;;;;;;6.72;3.13;;;;;;;18.96;70.69;97315.09;10558102;28;20042;-30
2022/10/27 14:26:40;;;;;;;;;;;;;;;19.05;69.85;97316.84;10560847;28;20028;-32
2022/10/27 14:31:41;;;;;;;3.65;2.08;;;;;;;18.97;68.14;97326.09;10565940;28;19912;-31
2022/10/27 14:36:41;;;;;;;7.20;2.43;;;;;;;18.91;67.93;97326.06;10562945;28;20123;-30
2022/10/27 14:41:47;;;;;;;5.85;2.17;;;;;;;18.87;67.88;97325.19;10546956;28;20085;-30
2022/10/27 14:46:49;;;;;;;9.53;2.17;;;;;;;18.90;67.96;97331.94;10556258;28;20047;-30
2022/10/27 14:51:51;;;;;;;7.10;2.40;;;;;;;18.91;67.73;97331.13;10562277;28;20036;-31
2022/10/27 14:56:52;;;;;;;4.72;2.60;;;;;;;18.90;67.72;97337.88;10552248;28;20677;-29
2022/10/27 15:01:53;;;;;;;5.40;1.90;;;;;;;18.85;67.67;97326.84;10556247;28;20035;-30
2022/10/27 15:07:01;;;;;;;6.40;2.45;;;;;;;18.88;67.40;97336.16;10555237;28;20034;-31
2022/10/27 15:12:05;;;;;;;3.78;2.30;;;;;;;18.88;67.39;97334.50;10557161;28;20035;-30
2022/10/27 15:17:05;;;;;;;3.45;2.20;;;;;;;18.95;67.54;97325.22;10556170;28;20461;-31
2022/10/27 15:22:05;;;;;;;4.10;2.10;;;;;;;19.11;67.39;97344.81;10558435;28;20035;-31
2022/10/27 15:27:08;;;;;;;10.57;3.28;;;;;;;19.11;69.17;97342.28;10559971;28;20289;-30
2022/10/27 15:32:27;;;;;;;8.90;3.25;;;;;;;19.14;69.25;97339.75;10573272;28;20032;-30
2022/10/27 15:37:32;;;;;;;5.63;2.50;;;;;;;19.21;68.00;97341.53;10564881;28;20110;-30
2022/10/27 15:42:35;;;;;;;7.22;2.63;;;;;;;19.33;66.92;97356.88;10560439;28;20027;-30
2022/10/27 15:47:40;;;;;;;10.45;2.67;;;;;;;19.39;66.84;97346.72;10564151;28;20039;-31
2022/10/27 15:52:41;;;;;;;5.68;2.42;;;;;;;19.45;66.61;97352.72;10561981;28;20066;-31
2022/10/27 15:57:43;;;;;;;9.43;2.40;;;;;;;19.40;66.57;97361.13;10564613;28;20024;-31
2022/10/27 16:02:45;;;;;;;11.57;2.60;;;;;;;19.33;67.44;97364.47;10552453;28;20036;-31
2022/10/27 16:07:45;;;;;;;10.80;2.78;;;;;;;19.40;67.41;97371.28;10566120;28;20032;-31
2022/10/27 16:12:45;;;;;;;8.37;2.33;;;;;;;19.36;67.90;97382.25;10558411;28;20032;-30
2022/10/27 16:17:49;;;;;;;9.30;3.53;;;;;;;19.28;67.94;97379.69;10560919;28;20509;-29
2022/10/27 16:22:50;;;;;;;8.77;2.67;;;;;;;19.25;68.11;97388.97;10565342;28;20059;-30
2022/10/27 16:27:50;;;;;;;18.05;3.00;;;;;;;19.19;68.69;97391.44;10564226;28;20031;-30
2022/10/27 16:32:59;;;;;;;9.77;3.35;;;;;;;19.21;68.72;97387.22;10570275;28;20406;-30
2022/10/27 16:38:00;;;;;;;13.88;2.83;;;;;;;19.23;69.33;97386.41;10561390;28;20031;-29
2022/10/27 16:43:02;;;;;;;13.97;2.10;;;;;;;19.36;67.20;97402.56;10559966;28;20529;-29
2022/10/27 16:48:02;;;;;;;11.52;2.38;;;;;;;19.49;66.83;97410.28;10558694;28;20324;-29
2022/10/27 16:53:02;;;;;;;11.10;2.88;;;;;;;19.57;66.64;97410.31;10560117;28;20434;-29
2022/10/27 16:58:03;;;;;;;8.48;3.33;;;;;;;19.63;66.25;97411.25;10560801;28;20019;-30
2022/10/27 17:03:03;;;;;;;5.90;2.33;;;;;;;19.44;66.78;97411.09;10563544;28;20023;-29
2022/10/27 17:08:04;;;;;;;8.47;3.33;;;;;;;19.37;66.79;97409.34;10550851;28;20071;-29
2022/10/27 17:13:04;;;;;;;7.32;2.00;;;;;;;19.31;67.07;97414.38;10560032;28;20419;-29
2022/10/27 17:18:05;;;;;;;4.47;2.20;;;;;;;19.20;66.96;97401.63;10551716;28;20553;-30
2022/10/27 17:23:05;;;;;;;9.43;2.03;;;;;;;19.27;67.04;97415.22;10563056;28;20512;-31
2022/10/27 17:28:06;;;;;;;23.45;4.43;;;;;;;19.27;68.17;97423.66;10559191;28;20279;-30
2022/10/27 17:33:06;;;;;;;8.80;2.73;;;;;;;19.35;66.92;97426.28;10553718;28;20458;-29
2022/10/27 17:38:06;;;;;;;16.50;3.08;;;;;;;19.34;68.62;97429.66;10554970;28;20520;-29
2022/10/27 17:43:07;;;;;;;11.93;3.37;;;;;;;19.30;68.89;97410.13;10559766;28;20493;-29
2022/10/27 17:48:07;;;;;;;7.10;2.33;;;;;;;19.32;67.89;97421.16;10560562;28;20497;-30
2022/10/27 17:53:07;;;;;;;8.53;3.10;;;;;;;19.28;66.91;97434.66;10555556;28;20027;-29
2022/10/27 17:58:09;;;;;;;5.63;2.47;;;;;;;19.27;66.95;97440.59;10553211;28;20031;-30
2022/10/27 18:03:09;;;;;;;5.05;2.00;;;;;;;19.23;66.72;97446.47;10549151;28;20070;-28
2022/10/27 18:08:09;;;;;;;4.57;2.37;;;;;;;19.21;66.67;97441.41;10544580;28;20438;-29
2022/10/27 18:13:10;;;;;;;8.30;2.20;;;;;;;19.19;66.70;97445.59;10560296;28;20073;-30
2022/10/27 18:18:10;;;;;;;8.65;2.90;;;;;;;19.17;66.33;97438.78;10542266;28;20449;-29
2022/10/27 18:23:11;;;;;;;7.30;2.43;;;;;;;19.18;67.06;97448.94;10556281;28;20215;-29
2022/10/27 18:28:11;;;;;;;5.80;1.90;;;;;;;19.15;67.22;97448.06;10553468;28;20281;-30
2022/10/27 18:33:11;;;;;;;4.63;2.17;;;;;;;19.17;66.54;97456.56;10561898;28;20489;-29
2022/10/27 18:38:13;;;;;;;6.77;2.80;;;;;;;19.15;66.41;97458.22;10555688;28;20463;-29
2022/10/27 18:43:13;;;;;;;6.97;2.47;;;;;;;19.18;68.69;97463.31;10554260;28;20289;-29
2022/10/27 18:48:13;;;;;;;8.70;3.20;;;;;;;19.23;68.69;97456.63;10553388;28;20506;-30
2022/10/27 18:53:14;;;;;;;3.33;1.87;;;;;;;19.22;66.43;97470.16;10550921;28;20027;-30
2022/10/27 18:58:15;;;;;;;2.50;1.92;;;;;;;19.18;66.31;97455.72;10551698;28;20530;-30
2022/10/27 19:03:16;;;;;;;5.93;2.00;;;;;;;19.13;66.52;97454.81;10548720;28;20032;-30
2022/10/27 19:08:16;;;;;;;4.20;1.70;;;;;;;19.09;66.28;97453.09;10549555;28;20602;-29
2022/10/27 19:13:17;;;;;;;7.13;1.67;;;;;;;19.08;66.87;97453.94;10548630;28;20023;-30
2022/10/27 19:18:17;;;;;;;5.78;2.10;;;;;;;19.10;66.28;97449.72;10550661;28;20153;-30
2022/10/27 19:23:17;;;;;;;3.27;1.60;;;;;;;19.06;66.48;97435.28;10550030;28;20051;-29
2022/10/27 19:28:19;;;;;;;7.33;1.93;;;;;;;19.06;66.48;97442.91;10553921;28;20043;-29
2022/10/27 19:33:19;;;;;;;5.30;1.80;;;;;;;19.05;66.47;97441.19;10551227;28;20077;-30
2022/10/27 19:38:22;;;;;;;4.22;1.73;;;;;;;19.07;66.47;97436.97;10551177;28;20036;-29
2022/10/27 19:43:23;;;;;;;5.28;1.77;;;;;;;19.03;66.32;97446.28;10553454;28;20028;-30
2022/10/27 19:48:23;;;;;;;5.07;2.90;;;;;;;19.12;68.92;97437.88;10550797;28;20330;-29
2022/10/27 19:53:24;;;;;;;5.40;2.10;;;;;;;19.16;68.66;97435.38;10553843;28;20036;-29
2022/10/27 19:58:24;;;;;;;4.17;2.00;;;;;;;19.16;68.16;97432.84;10551286;28;20285;-30
2022/10/27 20:03:24;;;;;;;7.40;1.70;;;;;;;19.10;66.51;97430.25;10541140;28;20116;-30
2022/10/27 20:08:25;;;;;;;6.67;1.87;;;;;;;19.09;66.43;97427.72;10551668;28;20036;-29
2022/10/27 20:13:25;;;;;;;2.20;1.13;;;;;;;19.06;66.39;97422.59;10556280;28;20100;-29
2022/10/27 20:18:25;;;;;;;2.70;1.30;;;;;;;19.08;66.24;97421.78;10550909;28;20059;-31
2022/10/27 20:23:28;;;;;;;4.90;2.30;;;;;;;19.04;66.46;97419.19;10549692;28;20032;-30
2022/10/27 20:28:30;;;;;;;4.10;1.40;;;;;;;19.02;66.25;97428.50;10561316;28;20466;-29
2022/10/27 20:33:31;;;;;;;3.65;1.42;;;;;;;19.02;66.42;97431.03;10560127;28;20436;-30
2022/10/27 20:38:34;;;;;;;2.60;1.38;;;;;;;19.02;66.44;97431.03;10555636;28;20481;-30
2022/10/27 20:43:34;;;;;;;3.40;1.73;;;;;;;19.03;66.22;97417.50;10557412;28;20030;-29
2022/10/27 20:48:36;;;;;;;3.08;1.60;;;;;;;19.03;66.47;97431.06;10559763;28;20549;-29
2022/10/27 20:53:37;;;;;;;7.53;2.80;;;;;;;19.10;68.91;97421.78;10554246;28;20024;-30
2022/10/27 20:58:38;;;;;;;3.45;2.28;;;;;;;19.16;68.35;97417.63;10560892;28;20024;-29
2022/10/27 21:03:38;;;;;;;5.83;1.83;;;;;;;19.16;68.37;97424.41;10569340;28;20032;-28
2022/10/27 21:08:38;;;;;;;5.07;2.30;;;;;;;19.13;68.03;97419.28;10564609;28;20038;-30
2022/10/27 21:13:39;;;;;;;5.63;1.47;;;;;;;19.10;66.40;97414.19;10563417;28;20413;-29
2022/10/27 21:18:39;;;;;;;3.00;1.70;;;;;;;19.08;66.37;97418.41;10560487;28;20293;-30
2022/10/27 21:23:40;;;;;;;2.00;1.30;;;;;;;19.06;66.25;97420.06;10557010;27;20040;-30
2022/10/27 21:28:41;;;;;;;2.38;1.30;;;;;;;19.04;66.23;97417.53;10563972;28;20142;-32
2022/10/27 21:33:41;;;;;;;3.95;1.85;;;;;;;18.99;66.14;97414.09;10558751;28;20106;-29
2022/10/27 21:38:45;;;;;;;3.05;1.63;;;;;;;19.03;66.15;97423.44;10559964;28;20039;-30
2022/10/27 21:43:48;;;;;;;2.80;1.20;;;;;;;19.04;66.22;97421.75;10563980;28;20043;-29
2022/10/27 21:48:53;;;;;;;3.30;1.25;;;;;;;19.02;66.15;97411.56;10558055;28;20032;-29
2022/10/27 21:53:56;;;;;;;2.33;1.20;;;;;;;19.02;66.16;97410.72;10552036;28;20044;-30
2022/10/27 21:58:57;;;;;;;4.10;1.77;;;;;;;19.06;68.94;97413.31;10557414;28;20051;-29
2022/10/27 22:03:57;;;;;;;4.30;1.90;;;;;;;19.15;67.81;97408.31;10553980;28;20039;-29
2022/10/27 22:08:59;;;;;;;3.67;1.83;;;;;;;19.17;68.26;97409.16;10556952;28;20486;-29
2022/10/27 22:13:59;;;;;;;5.10;1.77;;;;;;;19.12;68.35;97404.88;10566139;28;20210;-29
2022/10/27 22:19:02;;;;;;;3.72;1.60;;;;;;;19.10;67.06;97398.94;10564071;28;20032;-29
2022/10/27 22:24:05;;;;;;;3.75;2.03;;;;;;;19.06;67.02;97397.22;10551592;28;20031;-29
2022/10/27 22:29:06;;;;;;;3.38;1.40;;;;;;;19.05;66.33;97395.50;10552135;28;20515;-29
2022/10/27 22:34:08;;;;;;;6.03;1.45;;;;;;;19.04;66.34;97386.22;10551152;28;20031;-29
2022/10/27 22:39:10;;;;;;;2.20;1.52;;;;;;;19.04;66.11;97388.75;10552810;28;20038;-29
2022/10/27 22:44:11;;;;;;;3.80;1.48;;;;;;;19.02;66.21;97380.28;10560442;28;20052;-29
2022/10/27 22:49:11;;;;;;;2.30;1.27;;;;;;;19.01;66.12;97376.03;10555395;28;20020;-29
2022/10/27 22:54:12;;;;;;;2.80;0.97;;;;;;;19.02;66.03;97385.34;10561732;28;20035;-28
2022/10/27 22:59:12;;;;;;;3.23;1.43;;;;;;;19.01;66.19;97381.94;10554873;28;20530;-29
2022/10/27 23:04:13;;;;;;;2.70;1.30;;;;;;;19.04;68.47;97383.66;10561170;28;20107;-30
2022/10/27 23:09:16;;;;;;;2.80;1.40;;;;;;;19.13;68.13;97389.69;10558917;28;20399;-30
2022/10/27 23:14:17;;;;;;;2.83;1.27;;;;;;;19.16;68.17;97384.63;10555577;28;20592;-29
2022/10/27 23:19:17;;;;;;;3.43;1.03;;;;;;;19.11;67.97;97375.28;10559750;28;20040;-29
2022/10/27 23:24:17;;;;;;;2.13;1.40;;;;;;;19.09;67.72;97376.94;10554022;28;20648;-31
2022/10/27 23:29:18;;;;;;;3.00;1.50;;;;;;;19.05;66.59;97375.22;10551072;28;20063;-29
2022/10/27 23:34:18;;;;;;;3.05;1.50;;;;;;;18.95;66.50;97358.22;10548748;28;20384;-29